Time;durP1;ratioP1;P1;durP2;ratioP2;P2;SDS_P1;SDS_P2;PMS_P1;PMS_P2;Temp;Humidity;BMP_temperature;BMP_pressure;BME280_temperature;BME280_humidity;BME280_pressure;Samples;Min_cycle;Max_cycle;Signal;HPM_P1;HPM_P2
2023/03/07 00:00:57;;;;;;;1.58;0.55;;;;;;;5.05;90.30;99997.03;4972054;28;97793;-30
2023/03/07 00:03:23;;;;;;;1.02;0.55;;;;;;;5.05;89.98;99994.34;4970122;28;96820;-29
2023/03/07 00:05:48;;;;;;;4.97;1.23;;;;;;;5.03;90.27;99986.41;4972168;28;96744;-30
2023/03/07 00:08:13;;;;;;;1.02;0.60;;;;;;;5.07;90.17;99996.00;4971538;28;98034;-30
2023/03/07 00:10:39;;;;;;;0.50;0.50;;;;;;;5.06;89.96;99988.03;4971588;28;99634;-29
2023/03/07 00:13:04;;;;;;;2.53;0.98;;;;;;;5.07;89.82;99995.13;4972237;28;96527;-30
2023/03/07 00:15:30;;;;;;;0.70;0.28;;;;;;;5.05;89.95;99992.56;4971690;28;96846;-29
2023/03/07 00:17:56;;;;;;;0.17;0.17;;;;;;;5.06;89.85;99988.91;4971918;28;97980;-30
2023/03/07 00:20:21;;;;;;;0.95;0.85;;;;;;;5.04;89.55;99988.13;4970425;28;100842;-31
2023/03/07 00:22:47;;;;;;;2.22;0.63;;;;;;;5.08;89.36;99989.69;4971967;28;96688;-30
2023/03/07 00:25:13;;;;;;;0.77;0.73;;;;;;;5.08;89.27;99980.78;4971446;28;96819;-30
2023/03/07 00:27:39;;;;;;;0.50;0.30;;;;;;;5.06;89.72;99986.22;4969795;28;100780;-31
2023/03/07 00:30:05;;;;;;;1.42;0.80;;;;;;;5.09;89.65;99986.06;4970319;28;100593;-30
2023/03/07 00:32:31;;;;;;;1.33;0.98;;;;;;;5.08;89.15;99983.47;4971999;28;96678;-31
2023/03/07 00:34:58;;;;;;;1.50;0.93;;;;;;;5.10;89.51;99985.13;4971542;28;96875;-30
2023/03/07 00:37:23;;;;;;;1.60;1.00;;;;;;;5.09;89.27;99987.88;4970072;28;100870;-31
2023/03/07 00:39:49;;;;;;;1.30;1.05;;;;;;;5.07;89.87;99979.91;4972385;28;97393;-30
2023/03/07 00:42:14;;;;;;;1.05;0.80;;;;;;;5.07;89.13;99976.34;4974998;28;96639;-30
2023/03/07 00:44:40;;;;;;;2.50;1.52;;;;;;;5.13;89.46;99980.53;4975610;28;96705;-30
2023/03/07 00:47:05;;;;;;;1.98;1.02;;;;;;;5.14;89.02;99977.75;4974747;28;97246;-30
2023/03/07 00:49:31;;;;;;;2.78;1.00;;;;;;;5.18;88.99;99983.84;4975118;28;97274;-29
2023/03/07 00:51:56;;;;;;;1.77;0.95;;;;;;;5.11;89.38;99977.94;4974352;28;96616;-30
2023/03/07 00:54:21;;;;;;;2.90;1.00;;;;;;;5.16;89.04;99975.00;4974781;28;96727;-29
2023/03/07 00:56:47;;;;;;;1.67;0.85;;;;;;;5.14;89.47;99974.22;4973469;28;97984;-30
2023/03/07 00:59:12;;;;;;;1.10;0.77;;;;;;;5.13;89.57;99973.34;4974585;28;97984;-30
2023/03/07 01:01:37;;;;;;;1.13;0.80;;;;;;;5.13;89.29;99970.66;4974832;28;96490;-30
2023/03/07 01:04:03;;;;;;;0.65;0.40;;;;;;;5.16;89.77;99975.88;4974769;28;96724;-30
2023/03/07 01:06:31;;;;;;;2.80;0.35;;;;;;;5.11;89.56;99970.75;4973119;28;100880;-29
2023/03/07 01:08:59;;;;;;;1.10;0.65;;;;;;;5.15;89.40;99967.88;4974040;28;97381;-30
2023/03/07 01:11:26;;;;;;;0.77;0.75;;;;;;;5.13;89.88;99965.31;4973055;28;96562;-29
2023/03/07 01:13:55;;;;;;;1.80;0.50;;;;;;;5.15;89.71;99963.41;4974419;28;96672;-29
2023/03/07 01:16:23;;;;;;;3.28;1.30;;;;;;;5.13;89.46;99951.88;4973706;28;98256;-30
2023/03/07 01:18:51;;;;;;;1.85;0.80;;;;;;;5.13;89.13;99957.25;4972652;28;100906;-31
2023/03/07 01:21:21;;;;;;;1.48;1.02;;;;;;;5.15;88.45;99951.78;4974290;28;96565;-29
2023/03/07 01:23:46;;;;;;;2.10;1.25;;;;;;;5.16;88.52;99956.22;4972944;28;96737;-29
2023/03/07 01:26:20;;;;;;;2.88;0.82;;;;;;;5.13;88.20;99949.19;4973903;28;98020;-30
2023/03/07 01:28:46;;;;;;;1.27;1.00;;;;;;;5.11;88.48;99943.91;4973976;28;98933;-30
2023/03/07 01:31:12;;;;;;;1.67;0.90;;;;;;;5.10;88.78;99934.13;4972794;28;96771;-30
2023/03/07 01:33:37;;;;;;;0.65;0.50;;;;;;;5.10;88.39;99943.97;4974494;28;96722;-30
2023/03/07 01:36:03;;;;;;;0.80;0.68;;;;;;;5.13;88.17;99942.97;4973773;28;97866;-30
2023/03/07 01:38:32;;;;;;;2.17;1.35;;;;;;;5.09;87.39;99936.88;4972558;28;101258;-33
2023/03/07 01:41:00;;;;;;;1.98;1.13;;;;;;;5.12;87.35;99934.03;4972199;28;96755;-29
2023/03/07 01:43:29;;;;;;;0.70;0.55;;;;;;;5.08;87.61;99924.44;4973796;28;96785;-30
2023/03/07 01:46:16;;;;;;;1.40;1.10;;;;;;;5.13;87.40;99933.09;4972474;28;100870;-29
2023/03/07 01:49:06;;;;;;;1.33;0.50;;;;;;;5.15;87.56;99924.94;4973449;28;99250;-30
2023/03/07 01:51:33;;;;;;;4.90;1.08;;;;;;;5.10;87.68;99920.69;4973325;28;96603;-29
2023/03/07 01:54:00;;;;;;;1.08;0.88;;;;;;;5.14;87.60;99923.22;4972467;28;96749;-29
2023/03/07 01:56:26;;;;;;;1.88;1.38;;;;;;;5.10;87.32;99909.97;4972122;28;100711;-30
2023/03/07 01:58:53;;;;;;;0.70;0.68;;;;;;;5.09;87.95;99907.34;4974103;28;98093;-29
2023/03/07 02:01:18;;;;;;;0.80;0.65;;;;;;;5.07;87.40;99895.81;4973679;28;96691;-30
2023/03/07 02:04:05;;;;;;;1.17;1.08;;;;;;;5.10;87.32;99907.28;4972325;28;96646;-30
2023/03/07 02:06:34;;;;;;;0.98;0.68;;;;;;;5.10;87.57;99907.28;4973168;28;97766;-29
2023/03/07 02:09:01;;;;;;;3.20;0.70;;;;;;;5.10;87.93;99907.28;4971658;28;100947;-30
2023/03/07 02:11:27;;;;;;;1.38;0.55;;;;;;;5.09;87.86;99900.16;4972006;28;96753;-29
2023/03/07 02:13:53;;;;;;;1.08;0.93;;;;;;;5.11;87.74;99906.31;4972100;28;96685;-30
2023/03/07 02:16:19;;;;;;;1.08;0.88;;;;;;;5.09;87.74;99900.16;4973493;28;97819;-29
2023/03/07 02:18:48;;;;;;;2.05;1.02;;;;;;;5.08;88.14;99889.53;4971461;28;101233;-29
2023/03/07 02:21:40;;;;;;;1.88;1.02;;;;;;;5.10;87.65;99891.19;4971910;28;98569;-30
2023/03/07 02:24:17;;;;;;;3.17;1.02;;;;;;;5.10;87.79;99901.91;4972275;28;96752;-30
2023/03/07 02:26:45;;;;;;;0.73;0.60;;;;;;;5.06;87.85;99886.91;4973226;28;97979;-30
2023/03/07 02:29:12;;;;;;;1.65;1.05;;;;;;;5.05;88.03;99890.56;4971787;28;101050;-29
2023/03/07 02:31:37;;;;;;;6.38;1.60;;;;;;;5.04;87.85;99896.88;4971402;28;96798;-29
2023/03/07 02:34:02;;;;;;;2.05;1.08;;;;;;;5.03;87.92;99884.41;4973335;28;96691;-29
2023/03/07 02:36:32;;;;;;;0.75;0.70;;;;;;;4.98;88.09;99888.28;4972945;28;97315;-30
2023/03/07 02:39:01;;;;;;;2.20;1.55;;;;;;;4.96;88.18;99893.75;4971452;28;100831;-29
2023/03/07 02:41:31;;;;;;;0.77;0.47;;;;;;;4.98;88.32;99888.28;4971679;28;96644;-30
2023/03/07 02:43:57;;;;;;;1.20;1.00;;;;;;;4.99;88.52;99882.84;4973399;28;96925;-30
2023/03/07 02:46:22;;;;;;;1.02;0.82;;;;;;;4.98;88.19;99886.47;4972745;28;99891;-29
2023/03/07 02:48:48;;;;;;;1.20;1.08;;;;;;;4.97;88.35;99876.69;4973219;28;97776;-30
2023/03/07 02:51:13;;;;;;;1.40;1.10;;;;;;;4.93;88.88;99875.09;4972960;28;96617;-30
2023/03/07 02:53:38;;;;;;;0.60;0.60;;;;;;;4.91;89.01;99874.34;4973185;28;96728;-30
2023/03/07 02:56:05;;;;;;;1.02;0.88;;;;;;;4.92;89.16;99881.44;4972310;28;97883;-30
2023/03/07 02:58:30;;;;;;;1.75;0.82;;;;;;;4.90;90.19;99881.50;4971235;28;102048;-29
2023/03/07 03:00:56;;;;;;;2.13;1.27;;;;;;;4.88;89.80;99879.84;4973012;28;96550;-29
2023/03/07 03:03:21;;;;;;;1.25;0.82;;;;;;;4.89;89.73;99876.25;4972283;28;96731;-32
2023/03/07 03:05:46;;;;;;;2.40;1.77;;;;;;;4.90;89.97;99876.13;4972546;28;97870;-31
2023/03/07 03:08:12;;;;;;;0.93;0.88;;;;;;;4.92;89.85;99875.22;4972293;28;97777;-30
2023/03/07 03:10:38;;;;;;;1.15;0.85;;;;;;;4.92;90.23;99870.69;4972859;28;96702;-30
2023/03/07 03:13:03;;;;;;;1.45;1.10;;;;;;;4.90;90.05;99873.44;4973087;28;96498;-30
2023/03/07 03:15:28;;;;;;;2.85;1.85;;;;;;;4.89;90.40;99868.19;4972510;28;97830;-30
2023/03/07 03:17:54;;;;;;;1.40;1.08;;;;;;;4.88;90.45;99875.34;4972516;28;97281;-29
2023/03/07 03:20:19;;;;;;;2.22;1.55;;;;;;;4.89;90.32;99866.38;4971827;28;97835;-29
2023/03/07 03:22:45;;;;;;;1.95;1.33;;;;;;;4.88;90.52;99866.44;4972679;28;96759;-30
2023/03/07 03:25:12;;;;;;;3.78;1.55;;;;;;;4.88;90.52;99871.81;4972038;28;98788;-30
2023/03/07 03:27:38;;;;;;;1.48;1.20;;;;;;;4.86;90.35;99868.34;4970912;28;100914;-30
2023/03/07 03:30:06;;;;;;;1.52;1.13;;;;;;;4.85;90.87;99863.94;4972488;28;96501;-30
2023/03/07 03:32:32;;;;;;;2.47;1.80;;;;;;;4.83;90.73;99865.81;4972312;28;96819;-30
2023/03/07 03:34:57;;;;;;;1.25;0.93;;;;;;;4.81;91.08;99867.72;4970634;28;100637;-29
2023/03/07 03:37:23;;;;;;;2.78;1.73;;;;;;;4.78;91.12;99860.72;4971123;28;101474;-29
2023/03/07 03:39:48;;;;;;;4.60;1.83;;;;;;;4.76;91.10;99869.78;4972498;28;96605;-29
2023/03/07 03:42:13;;;;;;;1.88;1.00;;;;;;;4.75;91.57;99866.25;4972350;28;96820;-30
2023/03/07 03:44:39;;;;;;;1.45;1.13;;;;;;;4.73;90.89;99852.03;4971765;28;97878;-30
2023/03/07 03:47:04;;;;;;;1.50;0.77;;;;;;;4.75;90.83;99854.66;4972347;28;97138;-30
2023/03/07 03:49:30;;;;;;;1.88;1.50;;;;;;;4.73;90.46;99849.34;4971960;28;96618;-30
2023/03/07 03:51:55;;;;;;;1.60;1.20;;;;;;;4.70;91.13;99849.53;4970844;28;96760;-29
2023/03/07 03:54:21;;;;;;;2.20;1.55;;;;;;;4.66;91.06;99846.13;4972124;28;97693;-30
2023/03/07 03:56:46;;;;;;;4.20;1.27;;;;;;;4.68;90.78;99856.78;4971729;28;99578;-30
2023/03/07 03:59:11;;;;;;;1.10;0.95;;;;;;;4.68;90.86;99860.34;4972229;28;96573;-30
2023/03/07 04:01:37;;;;;;;2.20;1.27;;;;;;;4.65;91.11;99857.81;4972707;28;96705;-29
2023/03/07 04:04:03;;;;;;;0.88;0.77;;;;;;;4.59;90.58;99846.53;4972056;28;97535;-30
2023/03/07 04:06:32;;;;;;;1.15;0.93;;;;;;;4.60;90.82;99849.16;4970411;28;100754;-29
2023/03/07 04:08:58;;;;;;;1.17;0.80;;;;;;;4.60;90.54;99854.53;4969535;28;100578;-30
2023/03/07 04:11:25;;;;;;;1.30;1.10;;;;;;;4.59;90.77;99843.88;4970674;28;96892;-29
2023/03/07 04:13:51;;;;;;;1.17;0.95;;;;;;;4.58;90.40;99843.00;4971487;28;100940;-29
2023/03/07 04:16:16;;;;;;;0.70;0.70;;;;;;;4.57;90.96;99843.94;4973691;28;101150;-29
2023/03/07 04:18:42;;;;;;;0.77;0.70;;;;;;;4.58;90.27;99848.38;4974838;28;96512;-30
2023/03/07 04:21:09;;;;;;;1.50;1.02;;;;;;;4.54;90.44;99845.94;4975456;28;96752;-30
2023/03/07 04:23:36;;;;;;;1.50;1.00;;;;;;;4.44;90.36;99842.88;4973762;28;98860;-30
2023/03/07 04:26:03;;;;;;;2.05;1.02;;;;;;;4.42;89.86;99839.41;4973892;28;100774;-30
2023/03/07 04:28:44;;;;;;;2.88;1.63;;;;;;;4.43;90.27;99842.00;4973860;28;96598;-31
2023/03/07 04:31:16;;;;;;;1.98;1.27;;;;;;;4.43;89.77;99843.78;4974831;28;96804;-31
2023/03/07 04:33:42;;;;;;;0.70;0.52;;;;;;;4.39;90.14;99832.38;4973151;28;101067;-30
2023/03/07 04:36:08;;;;;;;0.57;0.52;;;;;;;4.41;90.21;99841.22;4975125;28;97841;-30
2023/03/07 04:38:34;;;;;;;1.08;0.98;;;;;;;4.36;90.28;99835.22;4975098;28;96453;-29
2023/03/07 04:40:59;;;;;;;1.17;0.75;;;;;;;4.32;90.14;99830.09;4973802;28;96949;-30
2023/03/07 04:43:25;;;;;;;1.42;1.30;;;;;;;4.35;89.59;99828.13;4974906;28;97712;-30
2023/03/07 04:45:51;;;;;;;2.45;0.93;;;;;;;4.33;89.92;99824.66;4974842;28;97800;-29
2023/03/07 04:48:17;;;;;;;2.20;0.90;;;;;;;4.36;90.02;99823.63;4973780;28;96677;-30
2023/03/07 04:50:42;;;;;;;1.67;0.77;;;;;;;4.38;90.34;99819.91;4975690;28;96745;-29
2023/03/07 04:53:08;;;;;;;1.02;0.93;;;;;;;4.39;90.38;99820.81;4974376;28;100715;-29
2023/03/07 04:55:33;;;;;;;2.40;1.25;;;;;;;4.34;90.03;99817.47;4974517;28;99495;-30
2023/03/07 04:57:58;;;;;;;1.42;0.77;;;;;;;4.34;90.06;99813.00;4974435;28;96676;-32
2023/03/07 05:00:24;;;;;;;1.00;0.90;;;;;;;4.32;90.85;99822.94;4974568;28;96744;-30
2023/03/07 05:02:49;;;;;;;1.30;1.10;;;;;;;4.34;90.22;99828.19;4974616;28;97390;-30
2023/03/07 05:05:15;;;;;;;0.45;0.43;;;;;;;4.30;90.15;99834.69;4974690;28;97817;-29
2023/03/07 05:07:41;;;;;;;1.15;0.50;;;;;;;4.29;89.89;99825.78;4973223;28;96646;-30
2023/03/07 05:10:08;;;;;;;2.30;0.60;;;;;;;4.23;89.90;99826.09;4974402;28;96807;-30
2023/03/07 05:12:33;;;;;;;0.45;0.43;;;;;;;4.20;90.05;99826.25;4972988;28;100877;-31
2023/03/07 05:14:59;;;;;;;0.50;0.32;;;;;;;4.16;90.23;99825.53;4974721;28;97828;-30
2023/03/07 05:17:25;;;;;;;0.73;0.25;;;;;;;4.17;90.16;99821.91;4974372;28;96577;-30
2023/03/07 05:19:51;;;;;;;0.63;0.57;;;;;;;4.18;90.66;99833.50;4973921;28;96946;-30
2023/03/07 05:22:17;;;;;;;0.90;0.28;;;;;;;4.19;90.28;99830.72;4973598;28;99624;-29
2023/03/07 05:24:42;;;;;;;0.30;0.30;;;;;;;4.20;90.58;99836.97;4973633;28;99214;-29
2023/03/07 05:27:07;;;;;;;0.30;0.30;;;;;;;4.20;90.25;99819.06;4973686;28;96481;-30
2023/03/07 05:29:33;;;;;;;0.10;0.10;;;;;;;4.15;90.43;99831.00;4974218;28;96822;-29
2023/03/07 05:31:58;;;;;;;0.30;0.30;;;;;;;4.13;90.48;99828.38;4973999;28;99194;-29
2023/03/07 05:34:23;;;;;;;0.20;0.20;;;;;;;4.14;89.97;99815.84;4974232;28;97257;-30
2023/03/07 05:36:48;;;;;;;0.50;0.38;;;;;;;4.13;90.64;99825.69;4974176;28;96583;-30
2023/03/07 05:39:15;;;;;;;0.20;0.10;;;;;;;4.13;89.82;99830.19;4974466;28;96782;-30
2023/03/07 05:41:40;;;;;;;2.22;0.40;;;;;;;4.10;90.40;99822.28;4973772;28;99235;-30
2023/03/07 05:44:06;;;;;;;0.25;0.22;;;;;;;4.11;90.54;99832.09;4972257;28;100736;-30
2023/03/07 05:46:31;;;;;;;0.05;0.05;;;;;;;4.12;90.53;99840.03;4972318;28;97082;-29
2023/03/07 05:48:57;;;;;;;0.52;0.50;;;;;;;4.08;90.07;99826.88;4973803;28;96772;-30
2023/03/07 05:51:22;;;;;;;0.45;0.38;;;;;;;4.11;90.02;99840.97;4973684;28;99135;-30
2023/03/07 05:53:48;;;;;;;0.10;0.10;;;;;;;4.06;90.44;99843.03;4973813;28;98351;-31
2023/03/07 05:56:13;;;;;;;0.10;0.10;;;;;;;3.97;90.10;99840.81;4973634;28;96718;-31
2023/03/07 05:58:38;;;;;;;0.10;0.10;;;;;;;3.94;90.11;99836.50;4973606;28;96900;-30
2023/03/07 06:01:04;;;;;;;0.20;0.00;;;;;;;3.89;89.99;99840.34;4973513;28;99199;-29
2023/03/07 06:03:30;;;;;;;0.00;0.00;;;;;;;3.85;90.45;99836.09;4973685;28;99624;-30
2023/03/07 06:05:56;;;;;;;0.10;0.03;;;;;;;3.86;90.02;99843.16;4972363;28;96707;-29
2023/03/07 06:08:22;;;;;;;0.10;0.10;;;;;;;3.82;90.50;99842.47;4971593;28;96883;-30
2023/03/07 06:10:52;;;;;;;0.35;0.10;;;;;;;3.82;90.32;99842.47;4973131;28;98091;-29
2023/03/07 06:13:20;;;;;;;0.17;0.10;;;;;;;3.80;90.14;99845.22;4971764;28;99416;-30
2023/03/07 06:15:48;;;;;;;0.00;0.00;;;;;;;3.75;90.03;99844.56;4972016;28;96655;-30
2023/03/07 06:18:14;;;;;;;0.00;0.00;;;;;;;3.71;90.20;99845.66;4972010;28;96869;-30
2023/03/07 06:20:39;;;;;;;0.00;0.00;;;;;;;3.69;89.80;99846.69;4973298;28;98263;-30
2023/03/07 06:23:04;;;;;;;0.00;0.00;;;;;;;3.69;89.96;99850.22;4973402;28;98064;-29
2023/03/07 06:25:30;;;;;;;0.00;0.00;;;;;;;3.66;90.34;99847.69;4973093;28;98791;-30
2023/03/07 06:27:59;;;;;;;0.20;0.20;;;;;;;3.67;90.11;99844.09;4973806;28;96734;-29
2023/03/07 06:30:25;;;;;;;0.00;0.00;;;;;;;3.58;90.11;99840.06;4971850;28;100907;-30
2023/03/07 06:32:50;;;;;;;0.00;0.00;;;;;;;3.63;90.49;99847.00;4971746;28;101530;-32
2023/03/07 06:35:16;;;;;;;0.00;0.00;;;;;;;3.60;90.10;99851.56;4972852;28;96539;-29
2023/03/07 06:37:41;;;;;;;1.30;0.03;;;;;;;3.56;90.33;99833.91;4973116;28;96718;-31
2023/03/07 06:40:08;;;;;;;4.05;0.20;;;;;;;3.54;90.07;99845.63;4973211;28;97893;-30
2023/03/07 06:42:34;;;;;;;0.08;0.00;;;;;;;3.47;90.28;99849.56;4971470;28;100763;-29
2023/03/07 06:44:59;;;;;;;0.80;0.25;;;;;;;3.47;90.32;99850.41;4971740;28;96554;-29
2023/03/07 06:47:25;;;;;;;0.03;0.03;;;;;;;3.47;90.47;99849.56;4973111;28;96704;-30
2023/03/07 06:49:51;;;;;;;3.95;0.15;;;;;;;3.50;90.09;99852.06;4972944;28;97197;-30
2023/03/07 06:52:16;;;;;;;0.32;0.10;;;;;;;3.47;89.84;99852.22;4973025;28;99128;-30
2023/03/07 06:54:41;;;;;;;0.00;0.00;;;;;;;3.46;90.14;99850.50;4973042;28;96555;-30
2023/03/07 06:57:07;;;;;;;0.00;0.00;;;;;;;3.41;90.09;99848.06;4972681;28;97716;-30
2023/03/07 06:59:32;;;;;;;0.00;0.00;;;;;;;3.36;89.98;99850.06;4972474;28;97733;-29
2023/03/07 07:02:01;;;;;;;0.00;0.00;;;;;;;3.35;89.98;99840.31;4972917;28;97947;-30
2023/03/07 07:04:27;;;;;;;0.35;0.35;;;;;;;3.32;89.73;99845.81;4971115;28;96704;-29
2023/03/07 07:06:53;;;;;;;0.25;0.20;;;;;;;3.31;89.87;99847.63;4971291;28;96633;-30
2023/03/07 07:09:18;;;;;;;0.00;0.00;;;;;;;3.27;89.68;99848.72;4971965;28;97837;-31
2023/03/07 07:11:43;;;;;;;0.00;0.00;;;;;;;3.29;89.96;99854.84;4972588;28;97947;-30
2023/03/07 07:14:09;;;;;;;1.95;0.30;;;;;;;3.25;89.88;99855.06;4972933;28;96448;-31
2023/03/07 07:16:35;;;;;;;0.63;0.20;;;;;;;3.23;89.92;99859.63;4973364;28;96756;-31
2023/03/07 07:19:00;;;;;;;0.43;0.22;;;;;;;3.24;90.14;99864.88;4972168;28;99563;-30
2023/03/07 07:21:26;;;;;;;0.10;0.10;;;;;;;3.28;90.03;99866.47;4972646;28;97862;-31
2023/03/07 07:23:51;;;;;;;0.10;0.10;;;;;;;3.26;90.00;99872.84;4972070;28;96542;-31
2023/03/07 07:26:16;;;;;;;1.30;0.38;;;;;;;3.21;89.94;99870.38;4972211;28;96725;-31
2023/03/07 07:28:42;;;;;;;0.20;0.20;;;;;;;3.24;89.70;99875.59;4970623;28;97318;-30
2023/03/07 07:31:07;;;;;;;0.20;0.20;;;;;;;3.26;89.59;99884.41;4970077;28;97337;-33
2023/03/07 07:33:34;;;;;;;0.15;0.10;;;;;;;3.24;89.97;99877.41;4970334;28;96904;-32
2023/03/07 07:35:59;;;;;;;0.00;0.00;;;;;;;3.22;90.00;99879.28;4969888;28;96707;-30
2023/03/07 07:38:24;;;;;;;0.20;0.20;;;;;;;3.25;89.77;99892.53;4970455;28;97387;-31
2023/03/07 07:40:50;;;;;;;0.77;0.30;;;;;;;3.25;89.68;99887.19;4970204;28;97611;-30
2023/03/07 07:43:16;;;;;;;0.15;0.15;;;;;;;3.22;89.99;99885.53;4971095;28;96944;-31
2023/03/07 07:45:43;;;;;;;0.00;0.00;;;;;;;3.21;89.85;99891.78;4970954;28;96772;-30
2023/03/07 07:48:08;;;;;;;0.17;0.17;;;;;;;3.20;89.73;99895.44;4970824;28;100794;-31
2023/03/07 07:50:34;;;;;;;0.00;0.00;;;;;;;3.18;89.59;99889.28;4978511;28;99421;-30
2023/03/07 07:52:59;;;;;;;0.28;0.25;;;;;;;3.19;89.73;99891.00;4978755;28;96581;-30
2023/03/07 07:55:25;;;;;;;0.00;0.00;;;;;;;3.15;89.12;99897.44;4978628;28;96784;-30
2023/03/07 07:57:51;;;;;;;0.88;0.52;;;;;;;3.17;89.34;99901.78;4978578;28;98093;-31
2023/03/07 08:00:20;;;;;;;0.30;0.15;;;;;;;3.13;89.55;99893.97;4977156;28;100842;-30
2023/03/07 08:02:48;;;;;;;0.28;0.22;;;;;;;3.12;89.36;99901.13;4977227;28;96510;-32
2023/03/07 08:05:14;;;;;;;0.05;0.05;;;;;;;3.11;89.09;99904.75;4977768;28;96792;-30
2023/03/07 08:07:39;;;;;;;0.20;0.20;;;;;;;3.08;89.20;99906.69;4977055;28;100754;-30
2023/03/07 08:10:05;;;;;;;0.20;0.20;;;;;;;3.08;89.81;99907.56;4978502;28;97904;-30
2023/03/07 08:12:31;;;;;;;0.10;0.10;;;;;;;3.08;89.77;99912.91;4976512;28;96964;-30
2023/03/07 08:14:56;;;;;;;0.10;0.10;;;;;;;3.05;89.82;99907.72;4978815;28;96747;-30
2023/03/07 08:17:21;;;;;;;0.38;0.22;;;;;;;3.08;89.99;99918.25;4978432;28;98143;-30
2023/03/07 08:19:47;;;;;;;0.00;0.00;;;;;;;3.10;89.95;99920.84;4978087;28;99403;-30
2023/03/07 08:22:12;;;;;;;0.03;0.03;;;;;;;3.08;90.25;99912.06;4978268;28;99513;-30
2023/03/07 08:24:37;;;;;;;0.15;0.10;;;;;;;3.05;89.79;99913.06;4978056;28;96753;-30
2023/03/07 08:27:03;;;;;;;0.85;0.45;;;;;;;3.04;89.91;99905.09;4978073;28;99358;-31
2023/03/07 08:29:29;;;;;;;0.10;0.10;;;;;;;3.08;89.73;99901.34;4977089;28;100866;-30
2023/03/07 08:31:54;;;;;;;0.30;0.15;;;;;;;3.08;89.99;99896.00;4978195;28;96545;-30
2023/03/07 08:34:20;;;;;;;0.00;0.00;;;;;;;3.11;89.47;99898.53;4978595;28;96642;-29
2023/03/07 08:36:46;;;;;;;0.10;0.10;;;;;;;3.12;89.37;99906.50;4977461;28;98983;-30
2023/03/07 08:39:12;;;;;;;0.00;0.00;;;;;;;3.13;89.86;99894.84;4977608;28;99733;-30
2023/03/07 08:41:38;;;;;;;0.30;0.10;;;;;;;3.07;89.27;99892.44;4978145;28;96612;-30
2023/03/07 08:44:03;;;;;;;0.00;0.00;;;;;;;3.08;90.00;99879.94;4976832;28;97153;-30
2023/03/07 08:46:29;;;;;;;1.23;0.28;;;;;;;3.10;89.88;99894.09;4978438;28;97952;-30
2023/03/07 08:48:54;;;;;;;0.00;0.00;;;;;;;3.14;89.95;99891.22;4978209;28;97843;-30
2023/03/07 08:51:20;;;;;;;0.10;0.10;;;;;;;3.17;89.50;99893.75;4977695;28;96487;-30
2023/03/07 08:53:46;;;;;;;1.30;0.32;;;;;;;3.21;89.52;99897.16;4983571;28;96878;-30
2023/03/07 08:56:14;;;;;;;0.10;0.10;;;;;;;3.27;89.40;99883.50;4996222;28;100022;-30
2023/03/07 08:58:39;;;;;;;0.40;0.17;;;;;;;3.33;89.43;99893.91;4996390;28;101019;-31
2023/03/07 09:01:07;;;;;;;0.05;0.05;;;;;;;3.35;89.10;99884.00;4993886;28;96520;-30
2023/03/07 09:03:34;;;;;;;0.47;0.32;;;;;;;3.37;89.72;99884.78;4993231;28;96817;-30
2023/03/07 09:06:00;;;;;;;0.03;0.03;;;;;;;3.44;89.31;99887.19;4992349;28;102031;-30
2023/03/07 09:08:25;;;;;;;0.08;0.08;;;;;;;3.42;88.88;99889.91;4994228;28;98099;-30
2023/03/07 09:10:50;;;;;;;0.35;0.17;;;;;;;3.47;88.97;99901.28;4994663;28;96432;-31
2023/03/07 09:13:17;;;;;;;0.00;0.00;;;;;;;3.49;89.50;99903.88;4985258;28;96707;-30
2023/03/07 09:15:42;;;;;;;0.30;0.20;;;;;;;3.53;89.33;99910.84;4974337;28;97821;-31
2023/03/07 09:18:08;;;;;;;0.20;0.20;;;;;;;3.54;89.27;99893.81;4974798;28;97851;-32
2023/03/07 09:20:33;;;;;;;0.22;0.20;;;;;;;3.57;89.25;99891.84;4973747;28;96531;-30
2023/03/07 09:22:59;;;;;;;0.10;0.05;;;;;;;3.61;89.20;99889.91;4974515;28;96864;-30
2023/03/07 09:25:24;;;;;;;0.30;0.30;;;;;;;3.60;89.11;99897.09;4973476;28;97864;-30
2023/03/07 09:27:52;;;;;;;0.73;0.50;;;;;;;3.63;89.07;99890.72;4973993;28;99582;-30
2023/03/07 09:30:17;;;;;;;0.08;0.08;;;;;;;3.59;89.38;99892.66;4974234;28;96409;-29
2023/03/07 09:32:43;;;;;;;0.45;0.20;;;;;;;3.63;89.45;99896.06;4974272;28;96840;-29
2023/03/07 09:35:09;;;;;;;0.00;0.00;;;;;;;3.70;89.57;99897.50;4974022;28;97922;-30
2023/03/07 09:37:35;;;;;;;0.90;0.25;;;;;;;3.73;88.63;99893.81;4972484;28;101267;-30
2023/03/07 09:40:01;;;;;;;0.20;0.20;;;;;;;3.71;89.50;99898.34;4972655;28;96626;-30
2023/03/07 09:42:36;;;;;;;0.00;0.00;;;;;;;3.75;89.62;99900.81;4974228;28;96774;-30
2023/03/07 09:45:11;;;;;;;0.00;0.00;;;;;;;3.77;89.45;99895.41;4972470;28;99380;-31
2023/03/07 09:48:14;;;;;;;0.00;0.00;;;;;;;3.82;89.24;99891.53;4972345;28;100897;-30
2023/03/07 09:50:48;;;;;;;0.13;0.00;;;;;;;3.82;88.72;99891.53;4973643;28;96476;-29
2023/03/07 09:53:23;;;;;;;0.00;0.00;;;;;;;3.87;89.00;99893.13;4972614;28;96991;-30
2023/03/07 09:55:51;;;;;;;0.03;0.03;;;;;;;3.88;89.37;99892.19;4973920;28;97812;-30
2023/03/07 09:58:20;;;;;;;0.00;0.00;;;;;;;3.85;88.95;99890.53;4972114;28;100355;-30
2023/03/07 10:00:50;;;;;;;0.00;0.00;;;;;;;3.85;89.24;99889.66;4973535;28;96634;-30
2023/03/07 10:03:34;;;;;;;0.00;0.00;;;;;;;3.81;88.84;99892.50;4972576;28;96655;-30
2023/03/07 10:06:33;;;;;;;0.00;0.00;;;;;;;3.82;88.62;99898.72;4972118;28;101167;-30
2023/03/07 10:09:00;;;;;;;0.05;0.05;;;;;;;3.79;89.47;99899.72;4971864;28;100877;-30
2023/03/07 10:11:37;;;;;;;0.00;0.00;;;;;;;3.83;89.81;99903.13;4971884;28;96734;-31
2023/03/07 10:14:05;;;;;;;0.00;0.00;;;;;;;3.85;89.39;99893.19;4973790;28;96847;-32
2023/03/07 10:16:49;;;;;;;0.00;0.00;;;;;;;3.86;89.35;99896.72;4972775;28;99490;-31
2023/03/07 10:19:43;;;;;;;0.15;0.10;;;;;;;3.81;89.01;99892.50;4972039;28;100819;-30
2023/03/07 10:22:51;;;;;;;0.08;0.08;;;;;;;3.87;89.26;99901.16;4972122;28;97356;-30
2023/03/07 10:25:32;;;;;;;0.00;0.00;;;;;;;3.89;88.85;99901.97;4990147;28;96844;-30
2023/03/07 10:28:10;;;;;;;0.17;0.08;;;;;;;3.91;88.63;99887.53;4974054;28;99457;-29
2023/03/07 10:30:36;;;;;;;0.00;0.00;;;;;;;3.95;88.78;99894.47;4971928;28;99100;-31
2023/03/07 10:33:04;;;;;;;0.13;0.10;;;;;;;3.96;88.98;99898.91;4973425;28;96554;-31
2023/03/07 10:35:41;;;;;;;0.00;0.00;;;;;;;3.96;88.17;99896.22;4972079;28;96862;-30
2023/03/07 10:38:27;;;;;;;0.00;0.00;;;;;;;3.97;88.20;99899.75;4971720;28;99399;-30
2023/03/07 10:41:10;;;;;;;0.00;0.00;;;;;;;3.96;88.25;99900.72;4971692;28;100815;-30
2023/03/07 10:43:36;;;;;;;0.00;0.00;;;;;;;3.98;87.74;99909.53;4972775;28;96571;-29
2023/03/07 10:46:22;;;;;;;0.10;0.10;;;;;;;3.97;88.73;99911.34;4972866;28;96718;-30
2023/03/07 10:49:00;;;;;;;0.00;0.00;;;;;;;3.98;88.81;99912.19;4972643;28;97940;-32
2023/03/07 10:52:00;;;;;;;0.00;0.00;;;;;;;3.95;88.28;99910.53;4971496;28;100747;-30
2023/03/07 10:54:31;;;;;;;0.00;0.00;;;;;;;3.91;88.16;99919.69;4972731;28;96572;-30
2023/03/07 10:57:15;;;;;;;0.00;0.00;;;;;;;3.94;88.09;99910.63;4971574;28;96823;-30
2023/03/07 10:59:51;;;;;;;0.00;0.00;;;;;;;3.98;88.16;99915.78;4971490;28;100837;-30
2023/03/07 11:02:26;;;;;;;0.43;0.20;;;;;;;3.97;88.30;99914.00;4971673;28;101129;-31
2023/03/07 11:04:51;;;;;;;0.05;0.03;;;;;;;3.96;88.82;99916.78;4971093;28;96657;-30
2023/03/07 11:07:27;;;;;;;0.05;0.05;;;;;;;3.99;88.69;99916.63;4972685;28;96771;-30
2023/03/07 11:09:53;;;;;;;0.00;0.00;;;;;;;4.01;88.39;99914.75;4971630;28;99309;-31
2023/03/07 11:12:20;;;;;;;0.38;0.28;;;;;;;4.06;88.79;99912.69;4971218;28;101499;-29
2023/03/07 11:14:51;;;;;;;0.00;0.00;;;;;;;4.07;88.77;99910.88;4972547;28;96498;-30
2023/03/07 11:17:39;;;;;;;0.20;0.13;;;;;;;4.09;88.55;99909.88;4971259;28;96862;-30
2023/03/07 11:20:17;;;;;;;0.00;0.00;;;;;;;4.13;88.83;99911.44;4972335;28;97434;-29
2023/03/07 11:22:42;;;;;;;0.20;0.13;;;;;;;4.13;88.47;99911.44;4972272;28;97505;-29
2023/03/07 11:25:21;;;;;;;0.03;0.03;;;;;;;4.13;88.62;99919.50;4971751;28;96812;-30
2023/03/07 11:27:51;;;;;;;0.15;0.10;;;;;;;4.10;88.69;99919.66;4971474;28;96638;-29
2023/03/07 11:30:24;;;;;;;0.00;0.00;;;;;;;4.11;88.41;99924.06;4971036;28;102237;-30
2023/03/07 11:33:02;;;;;;;;;;;;;;;4.09;88.61;99925.06;4971235;28;101379;-30
2023/03/07 11:35:50;;;;;;;0.00;0.00;;;;;;;4.05;88.04;99927.03;4972271;28;96718;-30
2023/03/07 11:38:34;;;;;;;0.00;0.00;;;;;;;4.05;88.71;99927.03;4970597;28;97286;-29
2023/03/07 11:41:17;;;;;;;0.03;0.00;;;;;;;4.04;88.84;99922.63;4972053;28;99796;-29
2023/03/07 11:43:57;;;;;;;0.05;0.00;;;;;;;3.98;88.37;99917.56;4972442;28;97287;-30
2023/03/07 11:46:51;;;;;;;0.15;0.10;;;;;;;4.00;88.56;99919.25;4970988;28;96686;-30